sensor_id;sensor_type;location;lat;lon;timestamp;pressure;altitude;pressure_sealevel;temperature;humidity
24031;BME280;12240;51.142;22.486;2023-03-20T00:02:22;99337.66;;;3.67;100.00
24031;BME280;12240;51.142;22.486;2023-03-20T00:04:51;99334.72;;;3.71;100.00
24031;BME280;12240;51.142;22.486;2023-03-20T00:07:20;99324.63;;;3.65;100.00
24031;BME280;12240;51.142;22.486;2023-03-20T00:09:48;99333.03;;;3.70;100.00
24031;BME280;12240;51.142;22.486;2023-03-20T00:12:23;99287.41;;;3.46;100.00
24031;BME280;12240;51.142;22.486;2023-03-20T00:14:53;99319.69;;;3.61;100.00
24031;BME280;12240;51.142;22.486;2023-03-20T00:17:22;99330.72;;;3.66;100.00
24031;BME280;12240;51.142;22.486;2023-03-20T00:19:49;99339.91;;;3.60;100.00
24031;BME280;12240;51.142;22.486;2023-03-20T00:22:18;99326.00;;;3.58;100.00
24031;BME280;12240;51.142;22.486;2023-03-20T00:24:46;99278.81;;;3.31;100.00
24031;BME280;12240;51.142;22.486;2023-03-20T00:27:15;99333.78;;;3.59;100.00
24031;BME280;12240;51.142;22.486;2023-03-20T00:29:44;99283.88;;;3.22;100.00
24031;BME280;12240;51.142;22.486;2023-03-20T00:32:13;99335.84;;;3.43;100.00
24031;BME280;12240;51.142;22.486;2023-03-20T00:34:42;99320.78;;;3.45;100.00
24031;BME280;12240;51.142;22.486;2023-03-20T00:37:12;99314.56;;;3.46;100.00
24031;BME280;12240;51.142;22.486;2023-03-20T00:39:41;99322.97;;;3.51;100.00
24031;BME280;12240;51.142;22.486;2023-03-20T00:42:19;99323.81;;;3.52;100.00
24031;BME280;12240;51.142;22.486;2023-03-20T00:44:53;99278.44;;;3.12;100.00
24031;BME280;12240;51.142;22.486;2023-03-20T00:47:26;99333.34;;;3.42;100.00
24031;BME280;12240;51.142;22.486;2023-03-20T00:49:55;99330.59;;;3.43;100.00
24031;BME280;12240;51.142;22.486;2023-03-20T00:52:25;99279.38;;;3.24;100.00
24031;BME280;12240;51.142;22.486;2023-03-20T00:54:53;99294.38;;;3.34;100.00
24031;BME280;12240;51.142;22.486;2023-03-20T00:57:29;99328.25;;;3.51;100.00
24031;BME280;12240;51.142;22.486;2023-03-20T01:00:07;99330.38;;;3.46;100.00
24031;BME280;12240;51.142;22.486;2023-03-20T01:02:39;99326.47;;;3.39;100.00
24031;BME280;12240;51.142;22.486;2023-03-20T01:05:08;99326.19;;;3.31;100.00
24031;BME280;12240;51.142;22.486;2023-03-20T01:07:36;99283.50;;;3.03;100.00
24031;BME280;12240;51.142;22.486;2023-03-20T01:10:05;99326.72;;;3.24;100.00
24031;BME280;12240;51.142;22.486;2023-03-20T01:12:34;99327.06;;;3.19;100.00
24031;BME280;12240;51.142;22.486;2023-03-20T01:15:02;99329.34;;;3.11;100.00
24031;BME280;12240;51.142;22.486;2023-03-20T01:17:32;99271.75;;;2.83;100.00
24031;BME280;12240;51.142;22.486;2023-03-20T01:20:00;99332.72;;;3.13;100.00
24031;BME280;12240;51.142;22.486;2023-03-20T01:22:28;99331.28;;;3.09;100.00
24031;BME280;12240;51.142;22.486;2023-03-20T01:24:57;99331.28;;;3.09;100.00
24031;BME280;12240;51.142;22.486;2023-03-20T01:27:25;99315.09;;;2.90;100.00
24031;BME280;12240;51.142;22.486;2023-03-20T01:29:53;99315.91;;;3.03;100.00
24031;BME280;12240;51.142;22.486;2023-03-20T01:32:22;99326.22;;;3.06;100.00
24031;BME280;12240;51.142;22.486;2023-03-20T01:34:51;99282.91;;;2.74;100.00
24031;BME280;12240;51.142;22.486;2023-03-20T01:37:29;99310.34;;;2.95;100.00
24031;BME280;12240;51.142;22.486;2023-03-20T01:40:01;99290.06;;;2.85;100.00
24031;BME280;12240;51.142;22.486;2023-03-20T01:42:33;99232.66;;;2.54;100.00
24031;BME280;12240;51.142;22.486;2023-03-20T01:45:13;99325.81;;;3.12;100.00
24031;BME280;12240;51.142;22.486;2023-03-20T01:47:43;99323.28;;;3.11;100.00
24031;BME280;12240;51.142;22.486;2023-03-20T01:50:41;99318.75;;;3.13;100.00
24031;BME280;12240;51.142;22.486;2023-03-20T01:53:25;99322.88;;;3.04;100.00
24031;BME280;12240;51.142;22.486;2023-03-20T01:55:59;99317.91;;;3.00;100.00
24031;BME280;12240;51.142;22.486;2023-03-20T01:58:47;99322.94;;;3.03;100.00
24031;BME280;12240;51.142;22.486;2023-03-20T02:01:17;99301.94;;;2.90;100.00
24031;BME280;12240;51.142;22.486;2023-03-20T02:03:49;99328.31;;;3.01;100.00
24031;BME280;12240;51.142;22.486;2023-03-20T02:06:33;99319.09;;;2.96;100.00
24031;BME280;12240;51.142;22.486;2023-03-20T02:09:11;99315.50;;;2.84;100.00
24031;BME280;12240;51.142;22.486;2023-03-20T02:11:42;99258.63;;;2.46;100.00
24031;BME280;12240;51.142;22.486;2023-03-20T02:14:13;99310.34;;;2.70;100.00
24031;BME280;12240;51.142;22.486;2023-03-20T02:16:51;99289.13;;;2.61;100.00
24031;BME280;12240;51.142;22.486;2023-03-20T02:48:56;99313.31;;;2.78;100.00
24031;BME280;12240;51.142;22.486;2023-03-20T02:51:40;99305.81;;;2.72;100.00
24031;BME280;12240;51.142;22.486;2023-03-20T02:54:43;99307.72;;;2.70;100.00
24031;BME280;12240;51.142;22.486;2023-03-20T02:59:58;99307.94;;;2.67;100.00
24031;BME280;12240;51.142;22.486;2023-03-20T03:02:49;99224.63;;;2.05;100.00
24031;BME280;12240;51.142;22.486;2023-03-20T03:05:24;99315.81;;;2.55;100.00
24031;BME280;12240;51.142;22.486;2023-03-20T03:07:58;99306.47;;;2.51;100.00
24031;BME280;12240;51.142;22.486;2023-03-20T03:10:35;99189.53;;;1.81;100.00
24031;BME280;12240;51.142;22.486;2023-03-20T03:13:13;99306.34;;;2.52;100.00
24031;BME280;12240;51.142;22.486;2023-03-20T03:15:46;99289.63;;;2.53;100.00
24031;BME280;12240;51.142;22.486;2023-03-20T03:18:22;99303.63;;;2.66;100.00
24031;BME280;12240;51.142;22.486;2023-03-20T03:20:57;99298.78;;;2.60;100.00
24031;BME280;12240;51.142;22.486;2023-03-20T03:23:41;99299.19;;;2.67;100.00
24031;BME280;12240;51.142;22.486;2023-03-20T03:26:37;99256.09;;;2.31;100.00
24031;BME280;12240;51.142;22.486;2023-03-20T03:29:13;99265.25;;;2.51;100.00
24031;BME280;12240;51.142;22.486;2023-03-20T03:31:44;99278.28;;;2.65;100.00
24031;BME280;12240;51.142;22.486;2023-03-20T03:34:16;99272.84;;;2.68;100.00
24031;BME280;12240;51.142;22.486;2023-03-20T03:37:14;99291.75;;;2.73;100.00
24031;BME280;12240;51.142;22.486;2023-03-20T03:39:52;99232.75;;;2.39;100.00
24031;BME280;12240;51.142;22.486;2023-03-20T03:45:15;99289.22;;;2.72;100.00
24031;BME280;12240;51.142;22.486;2023-03-20T03:47:49;99294.50;;;2.72;100.00
24031;BME280;12240;51.142;22.486;2023-03-20T03:50:31;99289.31;;;2.70;100.00
24031;BME280;12240;51.142;22.486;2023-03-20T03:53:09;99289.53;;;2.67;100.00
24031;BME280;12240;51.142;22.486;2023-03-20T03:55:43;99291.31;;;2.67;100.00
24031;BME280;12240;51.142;22.486;2023-03-20T03:58:37;99289.22;;;2.59;100.00
24031;BME280;12240;51.142;22.486;2023-03-20T04:01:09;99285.53;;;2.49;100.00
24031;BME280;12240;51.142;22.486;2023-03-20T04:03:46;99293.50;;;2.35;100.00
24031;BME280;12240;51.142;22.486;2023-03-20T04:06:16;99230.31;;;1.99;100.00
24031;BME280;12240;51.142;22.486;2023-03-20T04:08:45;99296.16;;;2.35;100.00
24031;BME280;12240;51.142;22.486;2023-03-20T04:11:19;99294.03;;;2.27;100.00
24031;BME280;12240;51.142;22.486;2023-03-20T04:13:50;99292.63;;;2.22;100.00
24031;BME280;12240;51.142;22.486;2023-03-20T04:16:44;99215.31;;;1.62;100.00
24031;BME280;12240;51.142;22.486;2023-03-20T04:19:37;99240.16;;;1.83;100.00
24031;BME280;12240;51.142;22.486;2023-03-20T04:22:05;99286.44;;;2.10;100.00
24031;BME280;12240;51.142;22.486;2023-03-20T04:24:33;99255.50;;;1.89;100.00
24031;BME280;12240;51.142;22.486;2023-03-20T04:27:01;99292.09;;;2.17;100.00
24031;BME280;12240;51.142;22.486;2023-03-20T04:29:29;99292.00;;;2.18;100.00
24031;BME280;12240;51.142;22.486;2023-03-20T04:32:26;99255.94;;;1.95;100.00
24031;BME280;12240;51.142;22.486;2023-03-20T04:35:08;99300.84;;;2.17;100.00
24031;BME280;12240;51.142;22.486;2023-03-20T04:37:48;99257.91;;;1.92;100.00
24031;BME280;12240;51.142;22.486;2023-03-20T04:40:18;99302.28;;;2.09;100.00
24031;BME280;12240;51.142;22.486;2023-03-20T04:42:47;99299.66;;;2.09;100.00
24031;BME280;12240;51.142;22.486;2023-03-20T04:45:17;99287.38;;;2.09;100.00
24031;BME280;12240;51.142;22.486;2023-03-20T04:47:46;99266.34;;;1.97;100.00
24031;BME280;12240;51.142;22.486;2023-03-20T04:50:16;99303.34;;;2.19;100.00
24031;BME280;12240;51.142;22.486;2023-03-20T04:52:44;99303.16;;;2.22;100.00
24031;BME280;12240;51.142;22.486;2023-03-20T04:55:14;99194.84;;;1.54;100.00
24031;BME280;12240;51.142;22.486;2023-03-20T04:57:42;99287.28;;;2.11;100.00
24031;BME280;12240;51.142;22.486;2023-03-20T05:00:12;99306.34;;;2.27;100.00
24031;BME280;12240;51.142;22.486;2023-03-20T05:02:42;99302.84;;;2.26;100.00
24031;BME280;12240;51.142;22.486;2023-03-20T05:05:10;99298.75;;;2.22;100.00
24031;BME280;12240;51.142;22.486;2023-03-20T05:07:38;99311.03;;;2.22;100.00
24031;BME280;12240;51.142;22.486;2023-03-20T05:10:10;99310.38;;;2.18;100.00
24031;BME280;12240;51.142;22.486;2023-03-20T05:12:48;99303.13;;;2.09;100.00
24031;BME280;12240;51.142;22.486;2023-03-20T05:15:28;99308.81;;;2.16;100.00
24031;BME280;12240;51.142;22.486;2023-03-20T05:18:15;99307.31;;;2.12;100.00
24031;BME280;12240;51.142;22.486;2023-03-20T05:21:02;99305.34;;;2.03;100.00
24031;BME280;12240;51.142;22.486;2023-03-20T05:23:49;99307.00;;;2.04;100.00
24031;BME280;12240;51.142;22.486;2023-03-20T05:26:47;99301.13;;;2.00;100.00
24031;BME280;12240;51.142;22.486;2023-03-20T05:29:18;99306.59;;;2.10;100.00
24031;BME280;12240;51.142;22.486;2023-03-20T05:32:02;99311.03;;;2.22;100.00
24031;BME280;12240;51.142;22.486;2023-03-20T05:34:37;99278.94;;;1.92;100.00
24031;BME280;12240;51.142;22.486;2023-03-20T05:37:11;99313.56;;;2.23;100.00
24031;BME280;12240;51.142;22.486;2023-03-20T05:40:14;99307.50;;;2.35;100.00
24031;BME280;12240;51.142;22.486;2023-03-20T05:42:56;99313.59;;;2.49;100.00
24031;BME280;12240;51.142;22.486;2023-03-20T05:45:27;99309.06;;;2.63;100.00
24031;BME280;12240;51.142;22.486;2023-03-20T05:48:14;99263.34;;;2.53;100.00
24031;BME280;12240;51.142;22.486;2023-03-20T05:50:42;99310.34;;;2.95;100.00
24031;BME280;12240;51.142;22.486;2023-03-20T05:53:39;99312.53;;;3.01;100.00
24031;BME280;12240;51.142;22.486;2023-03-20T05:56:30;99295.91;;;3.13;100.00
24031;BME280;12240;51.142;22.486;2023-03-20T05:59:11;99308.50;;;3.33;100.00
24031;BME280;12240;51.142;22.486;2023-03-20T06:02:08;99296.06;;;3.35;100.00
24031;BME280;12240;51.142;22.486;2023-03-20T06:04:41;99257.03;;;3.29;100.00
24031;BME280;12240;51.142;22.486;2023-03-20T06:07:12;99288.09;;;3.61;100.00
24031;BME280;12240;51.142;22.486;2023-03-20T06:09:44;99303.16;;;3.82;100.00
24031;BME280;12240;51.142;22.486;2023-03-20T06:12:14;99258.75;;;3.54;100.00
24031;BME280;12240;51.142;22.486;2023-03-20T06:14:43;99304.16;;;3.92;100.00
24031;BME280;12240;51.142;22.486;2023-03-20T06:17:12;99298.06;;;3.92;100.00
24031;BME280;12240;51.142;22.486;2023-03-20T06:19:42;99305.09;;;4.04;100.00
24031;BME280;12240;51.142;22.486;2023-03-20T06:22:10;99303.69;;;4.22;100.00
24031;BME280;12240;51.142;22.486;2023-03-20T06:24:39;99238.91;;;3.85;100.00
24031;BME280;12240;51.142;22.486;2023-03-20T06:27:08;99312.03;;;4.39;100.00
24031;BME280;12240;51.142;22.486;2023-03-20T06:29:37;99313.25;;;4.46;100.00
24031;BME280;12240;51.142;22.486;2023-03-20T06:32:14;99300.59;;;4.62;100.00
24031;BME280;12240;51.142;22.486;2023-03-20T06:34:46;99315.25;;;4.89;100.00
24031;BME280;12240;51.142;22.486;2023-03-20T06:37:15;99301.94;;;5.23;100.00
24031;BME280;12240;51.142;22.486;2023-03-20T06:39:43;99306.84;;;5.50;100.00
24031;BME280;12240;51.142;22.486;2023-03-20T06:42:13;99300.03;;;5.90;100.00
24031;BME280;12240;51.142;22.486;2023-03-20T06:44:44;99289.31;;;6.03;100.00
24031;BME280;12240;51.142;22.486;2023-03-20T06:47:34;99297.56;;;6.41;100.00
24031;BME280;12240;51.142;22.486;2023-03-20T06:50:03;99283.56;;;6.50;100.00
24031;BME280;12240;51.142;22.486;2023-03-20T06:52:32;99288.63;;;6.83;100.00
24031;BME280;12240;51.142;22.486;2023-03-20T06:55:39;99247.09;;;7.04;100.00
24031;BME280;12240;51.142;22.486;2023-03-20T06:58:07;99258.66;;;7.43;100.00
24031;BME280;12240;51.142;22.486;2023-03-20T07:00:36;99276.88;;;7.85;100.00
24031;BME280;12240;51.142;22.486;2023-03-20T07:03:07;99282.19;;;8.14;100.00
24031;BME280;12240;51.142;22.486;2023-03-20T07:05:38;99267.66;;;7.99;100.00
24031;BME280;12240;51.142;22.486;2023-03-20T07:08:09;99289.84;;;8.07;100.00
24031;BME280;12240;51.142;22.486;2023-03-20T07:10:37;99271.88;;;8.40;100.00
24031;BME280;12240;51.142;22.486;2023-03-20T07:13:06;99226.63;;;8.12;100.00
24031;BME280;12240;51.142;22.486;2023-03-20T07:15:36;99235.28;;;8.14;100.00
24031;BME280;12240;51.142;22.486;2023-03-20T07:18:07;99269.38;;;8.29;100.00
24031;BME280;12240;51.142;22.486;2023-03-20T07:20:35;99284.00;;;8.61;100.00
24031;BME280;12240;51.142;22.486;2023-03-20T07:23:03;99235.28;;;8.53;100.00
24031;BME280;12240;51.142;22.486;2023-03-20T07:25:33;99271.84;;;9.05;100.00
24031;BME280;12240;51.142;22.486;2023-03-20T07:28:12;99265.66;;;9.23;100.00
24031;BME280;12240;51.142;22.486;2023-03-20T07:30:44;99273.56;;;9.33;100.00
24031;BME280;12240;51.142;22.486;2023-03-20T07:33:16;99272.78;;;9.50;100.00
24031;BME280;12240;51.142;22.486;2023-03-20T07:35:45;99274.78;;;9.66;100.00
24031;BME280;12240;51.142;22.486;2023-03-20T07:38:13;99265.16;;;10.09;100.00
24031;BME280;12240;51.142;22.486;2023-03-20T07:40:53;99253.03;;;10.32;100.00
24031;BME280;12240;51.142;22.486;2023-03-20T07:43:22;99208.13;;;10.12;100.00
24031;BME280;12240;51.142;22.486;2023-03-20T07:46:19;99245.94;;;10.84;100.00
24031;BME280;12240;51.142;22.486;2023-03-20T07:48:48;99254.31;;;11.23;100.00
24031;BME280;12240;51.142;22.486;2023-03-20T07:51:16;99252.78;;;11.12;100.00
24031;BME280;12240;51.142;22.486;2023-03-20T07:53:45;99205.22;;;11.00;100.00
24031;BME280;12240;51.142;22.486;2023-03-20T07:56:13;99255.19;;;11.65;100.00
24031;BME280;12240;51.142;22.486;2023-03-20T07:58:41;99256.88;;;11.74;100.00
24031;BME280;12240;51.142;22.486;2023-03-20T08:01:09;99264.81;;;12.32;100.00
24031;BME280;12240;51.142;22.486;2023-03-20T08:03:37;99222.59;;;12.43;100.00
24031;BME280;12240;51.142;22.486;2023-03-20T08:06:07;99251.25;;;12.81;100.00
24031;BME280;12240;51.142;22.486;2023-03-20T08:08:38;99204.53;;;12.77;100.00
24031;BME280;12240;51.142;22.486;2023-03-20T08:11:06;99250.41;;;13.13;100.00
24031;BME280;12240;51.142;22.486;2023-03-20T08:13:34;99251.66;;;13.41;100.00
24031;BME280;12240;51.142;22.486;2023-03-20T08:16:03;99203.75;;;13.24;100.00
24031;BME280;12240;51.142;22.486;2023-03-20T08:18:32;99259.22;;;13.60;100.00
24031;BME280;12240;51.142;22.486;2023-03-20T08:21:00;99222.47;;;13.54;100.00
24031;BME280;12240;51.142;22.486;2023-03-20T08:23:28;99250.28;;;13.45;100.00
24031;BME280;12240;51.142;22.486;2023-03-20T08:25:56;99260.00;;;13.38;100.00
24031;BME280;12240;51.142;22.486;2023-03-20T08:28:25;99235.69;;;13.17;100.00
24031;BME280;12240;51.142;22.486;2023-03-20T08:31:14;99261.38;;;13.26;100.00
24031;BME280;12240;51.142;22.486;2023-03-20T08:33:45;99227.53;;;13.03;100.00
24031;BME280;12240;51.142;22.486;2023-03-20T08:36:15;99281.44;;;13.14;100.00
24031;BME280;12240;51.142;22.486;2023-03-20T08:38:44;99267.97;;;12.83;100.00
24031;BME280;12240;51.142;22.486;2023-03-20T08:41:12;99273.94;;;12.93;100.00
24031;BME280;12240;51.142;22.486;2023-03-20T08:43:40;99267.63;;;13.03;100.00
24031;BME280;12240;51.142;22.486;2023-03-20T08:46:09;99276.38;;;13.35;100.00
24031;BME280;12240;51.142;22.486;2023-03-20T08:48:38;99277.00;;;13.53;100.00
24031;BME280;12240;51.142;22.486;2023-03-20T08:51:06;99282.84;;;13.49;100.00
24031;BME280;12240;51.142;22.486;2023-03-20T08:53:35;99240.91;;;13.49;100.00
24031;BME280;12240;51.142;22.486;2023-03-20T08:56:04;99271.75;;;13.68;100.00
24031;BME280;12240;51.142;22.486;2023-03-20T08:58:32;99277.16;;;13.52;100.00
24031;BME280;12240;51.142;22.486;2023-03-20T09:01:05;99270.09;;;13.59;100.00
24031;BME280;12240;51.142;22.486;2023-03-20T09:03:35;99277.53;;;13.79;100.00
24031;BME280;12240;51.142;22.486;2023-03-20T09:06:08;99190.72;;;13.13;100.00
24031;BME280;12240;51.142;22.486;2023-03-20T09:08:36;99262.78;;;13.53;100.00
24031;BME280;12240;51.142;22.486;2023-03-20T09:11:05;99240.13;;;13.71;100.00
24031;BME280;12240;51.142;22.486;2023-03-20T09:13:35;99278.66;;;13.93;100.00
24031;BME280;12240;51.142;22.486;2023-03-20T09:16:04;99237.38;;;13.57;100.00
24031;BME280;12240;51.142;22.486;2023-03-20T09:18:34;99281.34;;;13.93;100.00
24031;BME280;12240;51.142;22.486;2023-03-20T09:21:03;99267.47;;;14.12;100.00
24031;BME280;12240;51.142;22.486;2023-03-20T09:23:31;99272.47;;;14.46;100.00
24031;BME280;12240;51.142;22.486;2023-03-20T09:26:00;99275.84;;;14.62;100.00
24031;BME280;12240;51.142;22.486;2023-03-20T09:28:28;99267.75;;;14.85;100.00
24031;BME280;12240;51.142;22.486;2023-03-20T09:30:58;99272.88;;;15.09;100.00
24031;BME280;12240;51.142;22.486;2023-03-20T09:33:26;99263.94;;;15.16;100.00
24031;BME280;12240;51.142;22.486;2023-03-20T09:35:55;99261.44;;;15.15;99.65
24031;BME280;12240;51.142;22.486;2023-03-20T09:38:23;99259.78;;;15.29;98.48
24031;BME280;12240;51.142;22.486;2023-03-20T09:40:58;99215.84;;;15.15;97.64
24031;BME280;12240;51.142;22.486;2023-03-20T09:47:04;99224.78;;;15.37;98.18
24031;BME280;12240;51.142;22.486;2023-03-20T09:50:12;99260.28;;;15.82;98.03
24031;BME280;12240;51.142;22.486;2023-03-20T09:55:36;99213.13;;;15.59;96.66
24031;BME280;12240;51.142;22.486;2023-03-20T09:58:42;99245.50;;;16.07;93.02
24031;BME280;12240;51.142;22.486;2023-03-20T10:01:16;99256.06;;;16.30;89.78
24031;BME280;12240;51.142;22.486;2023-03-20T10:04:09;99200.81;;;15.64;85.31
24031;BME280;12240;51.142;22.486;2023-03-20T10:06:41;99247.22;;;16.15;87.01
24031;BME280;12240;51.142;22.486;2023-03-20T10:09:29;99167.75;;;15.99;87.61
24031;BME280;12240;51.142;22.486;2023-03-20T10:12:11;99254.28;;;16.58;88.88
24031;BME280;12240;51.142;22.486;2023-03-20T10:18:24;99249.72;;;16.38;87.15
24031;BME280;12240;51.142;22.486;2023-03-20T10:23:58;99251.34;;;16.32;84.82
24031;BME280;12240;51.142;22.486;2023-03-20T10:26:28;99204.56;;;16.05;85.20
24031;BME280;12240;51.142;22.486;2023-03-20T10:35:10;99208.47;;;16.24;81.66
24031;BME280;12240;51.142;22.486;2023-03-20T10:40:52;99237.47;;;16.50;81.04
24031;BME280;12240;51.142;22.486;2023-03-20T10:43:29;99185.31;;;16.44;80.05
24031;BME280;12240;51.142;22.486;2023-03-20T10:46:15;99233.72;;;16.72;82.40
24031;BME280;12240;51.142;22.486;2023-03-20T10:51:51;99156.16;;;16.69;83.66
24031;BME280;12240;51.142;22.486;2023-03-20T10:56:58;99216.84;;;17.12;81.24
24031;BME280;12240;51.142;22.486;2023-03-20T10:59:38;99224.72;;;17.13;82.92
24031;BME280;12240;51.142;22.486;2023-03-20T11:02:12;99223.13;;;17.25;82.25
24031;BME280;12240;51.142;22.486;2023-03-20T11:04:41;99223.94;;;17.19;81.53
24031;BME280;12240;51.142;22.486;2023-03-20T11:07:26;99208.81;;;17.18;81.58
24031;BME280;12240;51.142;22.486;2023-03-20T11:12:41;99179.59;;;16.75;81.70
24031;BME280;12240;51.142;22.486;2023-03-20T11:15:25;99186.22;;;16.79;82.14
24031;BME280;12240;51.142;22.486;2023-03-20T11:18:03;99219.53;;;17.12;83.66
24031;BME280;12240;51.142;22.486;2023-03-20T11:20:53;99180.00;;;17.06;83.23
24031;BME280;12240;51.142;22.486;2023-03-20T11:23:36;99203.28;;;17.26;82.46
24031;BME280;12240;51.142;22.486;2023-03-20T11:26:06;99210.09;;;17.22;81.67
24031;BME280;12240;51.142;22.486;2023-03-20T11:28:40;99209.78;;;17.38;80.83
24031;BME280;12240;51.142;22.486;2023-03-20T11:33:59;99170.81;;;17.34;80.00
24031;BME280;12240;51.142;22.486;2023-03-20T11:36:36;99152.13;;;16.86;79.57
24031;BME280;12240;51.142;22.486;2023-03-20T11:39:14;99216.25;;;17.16;77.95
24031;BME280;12240;51.142;22.486;2023-03-20T11:41:50;99211.34;;;17.26;80.46
24031;BME280;12240;51.142;22.486;2023-03-20T11:44:35;99161.41;;;16.77;79.19
24031;BME280;12240;51.142;22.486;2023-03-20T11:47:13;99205.25;;;17.11;79.39
24031;BME280;12240;51.142;22.486;2023-03-20T11:49:48;99170.69;;;17.08;81.00
24031;BME280;12240;51.142;22.486;2023-03-20T11:52:30;99205.56;;;17.29;80.63
24031;BME280;12240;51.142;22.486;2023-03-20T11:55:04;99151.56;;;17.37;80.54
24031;BME280;12240;51.142;22.486;2023-03-20T11:57:41;99159.41;;;17.80;80.25
24031;BME280;12240;51.142;22.486;2023-03-20T12:00:24;99152.97;;;17.68;79.72
24031;BME280;12240;51.142;22.486;2023-03-20T12:02:54;99177.22;;;17.81;77.27
24031;BME280;12240;51.142;22.486;2023-03-20T12:05:34;99191.53;;;17.88;78.23
24031;BME280;12240;51.142;22.486;2023-03-20T12:08:16;99192.59;;;17.93;78.29
24031;BME280;12240;51.142;22.486;2023-03-20T12:10:58;99182.63;;;17.87;77.62
24031;BME280;12240;51.142;22.486;2023-03-20T12:13:38;99182.88;;;17.99;77.54
24031;BME280;12240;51.142;22.486;2023-03-20T12:16:18;99180.44;;;18.36;77.85
24031;BME280;12240;51.142;22.486;2023-03-20T12:19:01;99151.91;;;17.69;79.05
24031;BME280;12240;51.142;22.486;2023-03-20T12:21:39;99191.94;;;17.37;80.69
24031;BME280;12240;51.142;22.486;2023-03-20T12:24:37;99146.72;;;16.79;83.76
24031;BME280;12240;51.142;22.486;2023-03-20T12:27:36;99179.66;;;17.28;83.72
24031;BME280;12240;51.142;22.486;2023-03-20T12:32:53;99173.72;;;17.33;82.06
24031;BME280;12240;51.142;22.486;2023-03-20T12:35:33;99161.09;;;16.99;80.00
24031;BME280;12240;51.142;22.486;2023-03-20T12:38:29;99143.19;;;16.79;81.96
24031;BME280;12240;51.142;22.486;2023-03-20T12:41:37;99189.41;;;16.40;84.95
24031;BME280;12240;51.142;22.486;2023-03-20T12:44:31;99160.88;;;15.76;86.19
24031;BME280;12240;51.142;22.486;2023-03-20T12:52:55;99204.28;;;15.14;94.21
24031;BME280;12240;51.142;22.486;2023-03-20T12:58:47;99147.47;;;14.53;97.50
24031;BME280;12240;51.142;22.486;2023-03-20T13:08:03;99187.03;;;14.65;98.51
24031;BME280;12240;51.142;22.486;2023-03-20T13:10:28;99147.28;;;14.69;100.00
24031;BME280;12240;51.142;22.486;2023-03-20T13:13:29;99184.00;;;14.83;100.00
24031;BME280;12240;51.142;22.486;2023-03-20T13:18:54;99177.47;;;14.85;100.00
24031;BME280;12240;51.142;22.486;2023-03-20T13:35:20;99183.34;;;13.84;100.00
24031;BME280;12240;51.142;22.486;2023-03-20T13:37:54;99169.53;;;13.42;100.00
24031;BME280;12240;51.142;22.486;2023-03-20T13:40:36;99185.25;;;13.45;100.00
24031;BME280;12240;51.142;22.486;2023-03-20T13:46:19;99171.31;;;13.27;100.00
24031;BME280;12240;51.142;22.486;2023-03-20T13:48:52;99127.63;;;12.96;100.00
24031;BME280;12240;51.142;22.486;2023-03-20T14:04:01;99180.22;;;12.95;100.00
24031;BME280;12240;51.142;22.486;2023-03-20T14:08:59;99184.09;;;12.93;100.00
24031;BME280;12240;51.142;22.486;2023-03-20T14:11:30;99179.59;;;12.85;100.00
24031;BME280;12240;51.142;22.486;2023-03-20T14:14:11;99180.97;;;12.81;100.00
24031;BME280;12240;51.142;22.486;2023-03-20T14:16:43;99183.16;;;12.69;100.00
24031;BME280;12240;51.142;22.486;2023-03-20T14:19:20;99157.31;;;12.54;100.00
24031;BME280;12240;51.142;22.486;2023-03-20T14:21:55;99160.34;;;12.43;100.00
24031;BME280;12240;51.142;22.486;2023-03-20T14:24:25;99176.16;;;12.68;100.00
24031;BME280;12240;51.142;22.486;2023-03-20T14:26:58;99178.28;;;12.73;100.00
24031;BME280;12240;51.142;22.486;2023-03-20T14:29:34;99178.78;;;12.76;100.00
24031;BME280;12240;51.142;22.486;2023-03-20T14:34:49;99178.00;;;12.60;100.00
24031;BME280;12240;51.142;22.486;2023-03-20T14:41:07;99187.72;;;12.21;100.00
24031;BME280;12240;51.142;22.486;2023-03-20T14:44:18;99200.88;;;12.14;100.00
24031;BME280;12240;51.142;22.486;2023-03-20T14:50:27;99207.56;;;11.86;100.00
24031;BME280;12240;51.142;22.486;2023-03-20T14:53:48;99206.88;;;11.84;100.00
24031;BME280;12240;51.142;22.486;2023-03-20T14:59:06;99199.63;;;11.60;100.00
24031;BME280;12240;51.142;22.486;2023-03-20T15:07:01;99148.09;;;10.94;100.00
24031;BME280;12240;51.142;22.486;2023-03-20T15:09:34;99160.53;;;10.86;100.00
24031;BME280;12240;51.142;22.486;2023-03-20T15:12:03;99194.56;;;11.00;100.00
24031;BME280;12240;51.142;22.486;2023-03-20T15:15:02;99204.53;;;10.90;100.00
24031;BME280;12240;51.142;22.486;2023-03-20T15:17:42;99204.94;;;10.77;100.00
24031;BME280;12240;51.142;22.486;2023-03-20T15:20:34;99209.34;;;10.61;100.00
24031;BME280;12240;51.142;22.486;2023-03-20T15:23:03;99158.69;;;10.27;100.00
24031;BME280;12240;51.142;22.486;2023-03-20T15:25:40;99207.41;;;10.45;100.00
24031;BME280;12240;51.142;22.486;2023-03-20T15:28:15;99160.09;;;10.13;100.00
24031;BME280;12240;51.142;22.486;2023-03-20T15:30:49;99193.16;;;10.28;100.00
24031;BME280;12240;51.142;22.486;2023-03-20T15:33:32;99166.72;;;10.09;100.00
24031;BME280;12240;51.142;22.486;2023-03-20T15:36:19;99209.41;;;10.25;100.00
24031;BME280;12240;51.142;22.486;2023-03-20T15:38:48;99208.06;;;10.21;100.00
24031;BME280;12240;51.142;22.486;2023-03-20T15:41:30;99205.47;;;10.12;100.00
24031;BME280;12240;51.142;22.486;2023-03-20T15:49:41;99207.19;;;10.03;100.00
24031;BME280;12240;51.142;22.486;2023-03-20T15:54:47;99114.06;;;9.25;100.00
24031;BME280;12240;51.142;22.486;2023-03-20T15:57:32;99212.88;;;9.91;100.00
24031;BME280;12240;51.142;22.486;2023-03-20T16:00:12;99211.38;;;9.88;100.00